createdAt,value
2022-08-02T00:01:14.477Z,13.27
2022-08-02T00:02:18.385Z,13.32
2022-08-02T00:03:24.432Z,12.57
2022-08-02T00:04:28.364Z,13.07
2022-08-02T00:05:32.901Z,13.88
2022-08-02T00:06:38.398Z,12.10
2022-08-02T00:07:43.568Z,13.88
2022-08-02T00:08:49.619Z,13.90
2022-08-02T00:09:54.303Z,13.27
2022-08-02T00:10:58.266Z,14.35
2022-08-02T00:12:02.729Z,15.40
2022-08-02T00:14:52.993Z,12.02
2022-08-02T00:15:56.653Z,12.70
2022-08-02T00:17:01.221Z,12.25
2022-08-02T00:18:04.852Z,11.38
2022-08-02T00:19:09.309Z,12.25
2022-08-02T00:20:13.152Z,12.07
2022-08-02T00:21:18.717Z,13.32
2022-08-02T00:22:24.220Z,13.20
2022-08-02T00:23:28.892Z,13.93
2022-08-02T00:24:32.558Z,13.80
2022-08-02T00:25:37.192Z,17.55
2022-08-02T00:27:00.038Z,17.25
2022-08-02T00:28:04.618Z,11.68
2022-08-02T00:29:08.398Z,12.38
2022-08-02T00:30:14.018Z,12.80
2022-08-02T00:31:18.575Z,15.80
2022-08-02T00:32:24.370Z,13.82
2022-08-02T00:34:27.735Z,12.05
2022-08-02T00:34:52.896Z,10.93
2022-08-02T00:35:56.736Z,11.20
2022-08-02T00:37:03.841Z,11.27
2022-08-02T00:38:09.014Z,11.65
2022-08-02T00:39:35.299Z,12.60
2022-08-02T00:40:38.434Z,12.35
2022-08-02T00:41:46.933Z,11.55
2022-08-02T00:43:04.541Z,15.20
2022-08-02T00:44:08.320Z,14.23
2022-08-02T00:45:13.187Z,13.07
2022-08-02T00:46:17.416Z,11.13
2022-08-02T00:47:23.117Z,11.00
2022-08-02T00:48:26.765Z,14.55
2022-08-02T00:49:32.929Z,14.38
2022-08-02T00:50:40.933Z,11.80
2022-08-02T00:51:45.682Z,13.98
2022-08-02T00:52:49.893Z,14.98
2022-08-02T00:53:57.561Z,12.85
2022-08-02T00:55:01.310Z,17.27
2022-08-02T00:56:06.630Z,21.77
2022-08-02T00:57:10.463Z,15.93
2022-08-02T00:58:15.430Z,17.85
2022-08-02T00:59:27.681Z,12.98
2022-08-02T01:00:34.316Z,17.92
2022-08-02T01:01:56.261Z,16.10
2022-08-02T01:03:02.293Z,14.98
2022-08-02T01:04:06.743Z,14.52
2022-08-02T01:05:11.753Z,14.32
2022-08-02T01:06:15.073Z,15.90
2022-08-02T01:07:20.119Z,20.00
2022-08-02T01:08:29.395Z,17.70
2022-08-02T01:09:38.302Z,17.30
2022-08-02T01:10:42.335Z,17.27
2022-08-02T01:11:47.070Z,17.80
2022-08-02T01:12:50.883Z,20.58
2022-08-02T01:13:55.774Z,22.63
2022-08-02T01:15:01.653Z,20.05
2022-08-02T01:16:11.600Z,17.90
2022-08-02T01:17:22.890Z,21.45
2022-08-02T01:18:32.285Z,19.95
2022-08-02T01:19:40.762Z,21.02
2022-08-02T01:21:29.668Z,22.30
2022-08-02T01:23:02.086Z,23.65
2022-08-02T01:24:21.463Z,20.48
2022-08-02T01:25:54.770Z,27.27
2022-08-02T01:27:07.318Z,23.85
2022-08-02T01:28:30.494Z,23.05
2022-08-02T01:29:37.002Z,24.83
2022-08-02T01:30:42.241Z,26.23
2022-08-02T01:31:52.513Z,27.45
2022-08-02T01:32:59.820Z,22.77
2022-08-02T01:34:08.211Z,27.60
2022-08-02T01:35:15.652Z,27.33
2022-08-02T01:36:20.951Z,26.27
2022-08-02T01:37:28.525Z,27.75
2022-08-02T01:38:35.693Z,26.60
2022-08-02T01:39:42.565Z,28.00
2022-08-02T01:40:46.341Z,26.42
2022-08-02T01:41:51.902Z,32.83
2022-08-02T01:43:01.834Z,27.33
2022-08-02T01:44:12.813Z,27.85
2022-08-02T01:45:17.066Z,36.20
2022-08-02T01:46:22.472Z,27.77
2022-08-02T01:47:30.844Z,27.02
2022-08-02T01:48:37.040Z,26.52
2022-08-02T01:49:41.011Z,30.77
2022-08-02T01:50:46.540Z,32.05
2022-08-02T01:52:11.567Z,28.13
2022-08-02T01:53:17.734Z,30.85
2022-08-02T01:56:58.353Z,32.80
2022-08-02T01:58:05.151Z,33.00
2022-08-02T01:59:21.006Z,32.72
2022-08-02T02:00:27.743Z,31.73
2022-08-02T02:01:34.286Z,36.92
2022-08-02T02:02:42.083Z,40.20
2022-08-02T02:03:48.191Z,37.90
2022-08-02T02:04:53.064Z,42.03
2022-08-02T02:05:59.136Z,39.80
2022-08-02T02:07:03.580Z,41.72
2022-08-02T02:08:09.462Z,41.90
2022-08-02T02:09:13.962Z,41.30
2022-08-02T02:10:21.392Z,41.53
2022-08-02T02:12:09.399Z,40.30
2022-08-02T02:12:52.218Z,42.95
2022-08-02T02:13:56.578Z,39.67
2022-08-02T02:15:04.330Z,37.00
2022-08-02T02:16:08.352Z,40.97
2022-08-02T02:17:57.216Z,41.38
2022-08-02T02:18:41.007Z,38.60
2022-08-02T02:19:48.841Z,38.13
2022-08-02T02:20:52.632Z,35.45
2022-08-02T02:21:57.446Z,35.95
2022-08-02T02:23:01.086Z,36.83
2022-08-02T02:24:09.090Z,33.97
2022-08-02T02:25:34.286Z,35.40
2022-08-02T02:26:52.116Z,32.80
2022-08-02T02:28:00.965Z,35.15
2022-08-02T02:29:06.548Z,31.73
2022-08-02T02:30:12.871Z,36.78
2022-08-02T02:31:19.622Z,33.65
2022-08-02T02:32:23.722Z,29.52
2022-08-02T02:33:29.561Z,31.83
2022-08-02T02:35:01.726Z,28.88
2022-08-02T02:36:26.113Z,29.77
2022-08-02T02:37:33.074Z,32.13
2022-08-02T02:38:37.478Z,29.55
2022-08-02T02:39:42.416Z,32.70
2022-08-02T02:40:47.511Z,30.08
2022-08-02T02:41:53.546Z,32.58
2022-08-02T02:42:59.252Z,30.38
2022-08-02T02:44:04.191Z,31.00
2022-08-02T02:45:10.295Z,32.63
2022-08-02T02:46:17.343Z,32.25
2022-08-02T02:47:20.942Z,28.40
2022-08-02T02:48:26.968Z,30.75
2022-08-02T02:49:58.739Z,30.98
2022-08-02T02:51:06.174Z,31.90
2022-08-02T02:54:30.250Z,29.40
2022-08-02T02:56:02.085Z,29.33
2022-08-02T02:57:24.131Z,29.92
2022-08-02T02:58:31.696Z,26.67
2022-08-02T02:59:45.364Z,28.88
2022-08-02T03:01:11.870Z,31.33
2022-08-02T03:02:18.112Z,27.70
2022-08-02T03:03:22.292Z,27.02
2022-08-02T03:04:55.162Z,30.35
2022-08-02T03:05:54.714Z,26.65
2022-08-02T03:07:31.174Z,31.35
2022-08-02T03:08:35.054Z,32.08
2022-08-02T03:09:41.651Z,30.45
2022-08-02T03:10:45.698Z,30.20
2022-08-02T03:11:50.585Z,29.92
2022-08-02T03:12:58.445Z,28.65
2022-08-02T03:14:04.537Z,29.58
2022-08-02T03:15:09.771Z,32.63
2022-08-02T03:16:14.963Z,31.52
2022-08-02T03:17:20.486Z,29.85
2022-08-02T03:18:36.659Z,29.95
2022-08-02T03:19:41.602Z,26.92
2022-08-02T03:20:46.417Z,27.10
2022-08-02T03:21:57.372Z,26.42
2022-08-02T03:23:02.841Z,28.40
2022-08-02T03:24:07.391Z,26.83
2022-08-02T03:25:12.963Z,27.80
2022-08-02T03:26:17.623Z,33.63
2022-08-02T03:27:25.465Z,28.20
2022-08-02T03:28:29.642Z,30.58
2022-08-02T03:29:37.021Z,26.60
2022-08-02T03:30:43.868Z,30.00
2022-08-02T03:31:57.535Z,27.20
2022-08-02T03:33:02.901Z,28.17
2022-08-02T03:34:07.802Z,26.58
2022-08-02T03:35:13.231Z,28.17
2022-08-02T03:36:20.989Z,27.95
2022-08-02T03:37:25.325Z,28.30
2022-08-02T03:38:30.827Z,29.05
2022-08-02T03:39:34.741Z,23.33
2022-08-02T03:40:39.945Z,24.75
2022-08-02T03:41:48.674Z,25.30
2022-08-02T03:42:53.987Z,22.38
2022-08-02T03:43:58.254Z,22.65
2022-08-02T03:45:08.211Z,24.15
2022-08-02T03:46:14.900Z,24.45
2022-08-02T03:47:19.866Z,23.85
2022-08-02T03:48:34.095Z,22.70
2022-08-02T03:49:41.513Z,21.30
2022-08-02T03:50:49.288Z,21.17
2022-08-02T03:51:57.217Z,22.80
2022-08-02T03:53:26.378Z,24.23
2022-08-02T03:54:34.829Z,25.23
2022-08-02T03:55:50.901Z,23.80
2022-08-02T03:56:55.051Z,20.48
2022-08-02T03:57:59.892Z,23.58
2022-08-02T03:59:15.123Z,24.67
2022-08-02T04:00:21.740Z,21.52
2022-08-02T04:01:29.693Z,23.92
2022-08-02T04:02:32.993Z,21.15
2022-08-02T04:03:38.919Z,20.77
2022-08-02T04:04:42.509Z,23.65
2022-08-02T04:06:28.371Z,21.98
2022-08-02T04:08:33.447Z,22.80
2022-08-02T04:08:58.510Z,22.10
2022-08-02T04:10:02.131Z,26.08
2022-08-02T04:11:24.621Z,24.85
2022-08-02T04:12:36.891Z,22.90
2022-08-02T04:13:42.173Z,20.95
2022-08-02T04:14:47.232Z,21.52
2022-08-02T04:15:55.023Z,23.50
2022-08-02T04:17:04.730Z,22.10
2022-08-02T04:18:08.456Z,21.83
2022-08-02T04:19:19.010Z,20.00
2022-08-02T04:20:23.854Z,20.00
2022-08-02T04:21:48.551Z,21.75
2022-08-02T04:23:02.500Z,23.10
2022-08-02T04:24:08.395Z,19.05
2022-08-02T04:25:17.548Z,20.17
2022-08-02T04:26:27.524Z,19.92
2022-08-02T04:27:51.322Z,19.23
2022-08-02T04:28:57.477Z,19.08
2022-08-02T04:30:02.184Z,20.90
2022-08-02T04:31:05.898Z,21.95
2022-08-02T04:32:10.718Z,21.15
2022-08-02T04:33:14.295Z,19.33
2022-08-02T04:34:19.916Z,18.42
2022-08-02T04:35:23.333Z,19.60
2022-08-02T04:36:30.851Z,22.48
2022-08-02T04:37:35.237Z,19.52
2022-08-02T04:38:39.733Z,20.08
2022-08-02T04:39:43.212Z,20.70
2022-08-02T04:40:57.367Z,20.92
2022-08-02T04:42:00.497Z,21.55
2022-08-02T04:43:04.706Z,21.02
2022-08-02T04:44:08.036Z,22.08
2022-08-02T04:45:16.599Z,22.85
2022-08-02T04:46:21.772Z,23.33
2022-08-02T04:47:54.181Z,23.17
2022-08-02T04:48:49.958Z,23.08
2022-08-02T04:49:55.092Z,22.13
2022-08-02T04:50:59.427Z,24.95
2022-08-02T04:52:02.605Z,23.52
2022-08-02T04:53:06.998Z,23.55
2022-08-02T04:54:12.905Z,29.08
2022-08-02T04:55:18.539Z,24.02
2022-08-02T04:56:27.092Z,26.35
2022-08-02T04:57:53.211Z,25.38
2022-08-02T04:59:01.287Z,20.90
2022-08-02T05:00:24.815Z,22.80
2022-08-02T05:01:39.661Z,29.17
2022-08-02T05:02:43.122Z,28.50
2022-08-02T05:03:53.841Z,27.98
2022-08-02T05:05:10.052Z,26.13
2022-08-02T05:06:21.843Z,27.25
2022-08-02T05:07:25.701Z,26.23
2022-08-02T05:08:30.263Z,31.40
2022-08-02T05:09:33.714Z,30.48
2022-08-02T05:10:38.085Z,32.17
2022-08-02T05:11:41.351Z,30.45
2022-08-02T05:12:45.692Z,33.90
2022-08-02T05:13:58.833Z,32.67
2022-08-02T05:15:03.961Z,29.10
2022-08-02T05:16:08.711Z,31.13
2022-08-02T05:17:12.280Z,27.92
2022-08-02T05:18:16.539Z,25.65
2022-08-02T05:19:20.673Z,27.45
2022-08-02T05:20:26.694Z,26.38
2022-08-02T05:21:30.085Z,27.83
2022-08-02T05:22:34.676Z,26.03
2022-08-02T05:23:38.976Z,28.58
2022-08-02T05:24:42.730Z,27.48
2022-08-02T05:25:49.801Z,23.60
2022-08-02T05:26:54.675Z,26.83
2022-08-02T05:27:59.122Z,23.17
2022-08-02T05:29:03.463Z,27.10
2022-08-02T05:30:09.525Z,27.60
2022-08-02T05:31:13.941Z,23.03
2022-08-02T05:32:17.185Z,27.70
2022-08-02T05:33:21.694Z,23.80
2022-08-02T05:34:24.894Z,22.80
2022-08-02T05:35:30.842Z,22.30
2022-08-02T05:36:35.530Z,25.77
2022-08-02T05:37:46.763Z,22.90
2022-08-02T05:38:51.503Z,24.17
2022-08-02T05:39:56.422Z,22.77
2022-08-02T05:41:01.021Z,25.37
2022-08-02T05:42:04.803Z,28.17
2022-08-02T05:43:13.833Z,24.40
2022-08-02T05:44:17.289Z,23.73
2022-08-02T05:45:21.868Z,22.97
2022-08-02T05:46:26.594Z,26.67
2022-08-02T05:47:30.125Z,20.97
2022-08-02T05:48:34.717Z,22.37
2022-08-02T05:49:38.251Z,22.73
2022-08-02T05:50:47.146Z,24.17
2022-08-02T05:52:02.855Z,23.67
2022-08-02T05:53:13.614Z,21.90
2022-08-02T05:54:20.989Z,24.60
2022-08-02T05:55:29.075Z,30.13
2022-08-02T05:56:34.644Z,27.90
2022-08-02T05:57:48.764Z,21.37
2022-08-02T05:58:57.851Z,25.03
2022-08-02T06:00:08.964Z,24.57
2022-08-02T06:01:24.444Z,21.07
2022-08-02T06:02:32.384Z,21.17
2022-08-02T06:03:39.227Z,22.93
2022-08-02T06:04:50.092Z,23.07
2022-08-02T06:06:01.745Z,24.93
2022-08-02T06:07:07.345Z,25.27
2022-08-02T06:08:13.788Z,21.63
2022-08-02T06:09:21.065Z,24.47
2022-08-02T06:10:31.523Z,21.20
2022-08-02T06:11:36.409Z,24.47
2022-08-02T06:12:45.256Z,24.20
2022-08-02T06:13:48.812Z,22.07
2022-08-02T06:14:54.672Z,20.17
2022-08-02T06:15:59.892Z,19.43
2022-08-02T06:17:06.382Z,19.53
2022-08-02T06:18:10.272Z,22.87
2022-08-02T06:19:15.172Z,19.87
2022-08-02T06:20:18.982Z,22.83
2022-08-02T06:22:33.421Z,20.97
2022-08-02T06:22:50.348Z,17.57
2022-08-02T06:23:57.897Z,18.00
2022-08-02T06:25:04.560Z,18.13
2022-08-02T06:26:09.126Z,20.33
2022-08-02T06:27:15.227Z,18.00
2022-08-02T06:28:20.120Z,18.33
2022-08-02T06:29:25.030Z,17.73
2022-08-02T06:30:28.917Z,19.30
2022-08-02T06:31:33.404Z,17.97
2022-08-02T06:32:37.261Z,18.90
2022-08-02T06:33:42.158Z,17.57
2022-08-02T06:34:46.508Z,16.97
2022-08-02T06:35:58.035Z,16.47
2022-08-02T06:37:12.813Z,16.77
2022-08-02T06:38:23.203Z,20.43
2022-08-02T06:39:33.030Z,20.60
2022-08-02T06:40:41.355Z,18.43
2022-08-02T06:41:50.275Z,19.47
2022-08-02T06:43:14.486Z,20.60
2022-08-02T06:44:45.849Z,18.63
2022-08-02T06:45:42.721Z,18.23
2022-08-02T06:47:11.568Z,20.37
2022-08-02T06:48:12.479Z,21.33
2022-08-02T06:49:15.753Z,24.13
2022-08-02T06:50:20.213Z,21.43
2022-08-02T06:51:30.835Z,19.73
2022-08-02T06:52:36.513Z,18.80
2022-08-02T06:53:41.155Z,20.37
2022-08-02T06:54:44.618Z,21.37
2022-08-02T06:55:49.024Z,23.17
2022-08-02T06:56:52.502Z,24.97
2022-08-02T06:57:57.100Z,25.67
2022-08-02T06:59:05.571Z,20.63
2022-08-02T07:00:12.872Z,21.50
2022-08-02T07:01:17.670Z,28.40
2022-08-02T07:02:21.549Z,28.63
2022-08-02T07:03:27.086Z,26.60
2022-08-02T07:04:30.383Z,33.93
2022-08-02T07:05:34.491Z,27.97
2022-08-02T07:06:37.862Z,26.50
2022-08-02T07:07:43.687Z,27.47
2022-08-02T07:09:04.899Z,29.13
2022-08-02T07:10:12.252Z,28.87
2022-08-02T07:11:15.588Z,24.47
2022-08-02T07:12:19.804Z,24.40
2022-08-02T07:13:24.104Z,23.97
2022-08-02T07:14:27.340Z,27.57
2022-08-02T07:15:31.734Z,24.93
2022-08-02T07:16:35.004Z,20.77
2022-08-02T07:17:39.070Z,20.83
2022-08-02T07:18:42.312Z,22.07
2022-08-02T07:19:46.823Z,24.47
2022-08-02T07:20:50.028Z,23.70
2022-08-02T07:21:59.266Z,21.67
2022-08-02T07:23:09.764Z,26.70
2022-08-02T07:24:13.987Z,24.60
2022-08-02T07:25:18.577Z,23.80
2022-08-02T07:26:21.876Z,29.10
2022-08-02T07:27:26.595Z,26.53
2022-08-02T07:28:30.753Z,25.60
2022-08-02T07:29:45.901Z,25.03
2022-08-02T07:30:51.166Z,25.53
2022-08-02T07:31:54.532Z,23.80
2022-08-02T07:32:58.753Z,22.83
2022-08-02T07:34:01.975Z,21.33
2022-08-02T07:35:07.873Z,20.23
2022-08-02T07:36:16.980Z,22.20
2022-08-02T07:37:53.194Z,20.10
2022-08-02T07:38:55.173Z,23.03
2022-08-02T07:39:58.505Z,29.50
2022-08-02T07:41:03.575Z,20.03
2022-08-02T07:42:07.275Z,22.03
2022-08-02T07:43:11.599Z,22.27
2022-08-02T07:44:15.761Z,22.17
2022-08-02T07:45:19.969Z,22.83
2022-08-02T07:46:23.378Z,20.60
2022-08-02T07:47:27.736Z,20.77
2022-08-02T07:48:31.003Z,19.83
2022-08-02T07:49:35.251Z,16.83
2022-08-02T07:50:39.673Z,15.03
2022-08-02T07:51:43.039Z,16.63
2022-08-02T07:52:50.132Z,16.07
2022-08-02T07:54:02.721Z,15.90
2022-08-02T07:55:09.809Z,17.23
2022-08-02T07:56:14.093Z,17.63
2022-08-02T07:57:18.352Z,16.27
2022-08-02T07:58:21.816Z,16.30
2022-08-02T07:59:26.046Z,15.23
2022-08-02T08:00:30.753Z,16.17
2022-08-02T08:01:34.571Z,18.63
2022-08-02T08:02:40.618Z,19.17
2022-08-02T08:03:44.172Z,19.63
2022-08-02T08:04:48.287Z,18.60
2022-08-02T08:05:54.620Z,17.00
2022-08-02T08:06:57.760Z,19.17
2022-08-02T08:08:01.993Z,19.20
2022-08-02T08:09:07.707Z,18.40
2022-08-02T08:10:11.352Z,19.00
2022-08-02T08:11:15.770Z,18.33
2022-08-02T08:12:20.204Z,17.73
2022-08-02T08:13:24.915Z,17.43
2022-08-02T08:14:28.101Z,17.67
2022-08-02T08:15:32.398Z,18.80
2022-08-02T08:16:36.853Z,17.60
2022-08-02T08:17:40.094Z,16.47
2022-08-02T08:18:44.758Z,17.83
2022-08-02T08:19:50.833Z,16.43
2022-08-02T08:20:56.981Z,15.87
2022-08-02T08:22:00.968Z,14.83
2022-08-02T08:23:05.262Z,14.40
2022-08-02T08:24:11.152Z,14.37
2022-08-02T08:25:14.545Z,15.77
2022-08-02T08:26:19.056Z,15.87
2022-08-02T08:27:23.403Z,16.67
2022-08-02T08:28:27.768Z,15.70
2022-08-02T08:29:31.814Z,15.37
2022-08-02T08:30:34.973Z,14.93
2022-08-02T08:31:39.453Z,16.53
2022-08-02T08:32:42.773Z,16.47
2022-08-02T08:33:47.172Z,16.50
2022-08-02T08:34:51.534Z,16.57
2022-08-02T08:35:56.372Z,16.63
2022-08-02T08:36:59.444Z,16.77
2022-08-02T08:38:07.505Z,15.57
2022-08-02T08:39:13.423Z,15.17
2022-08-02T08:40:19.620Z,18.03
2022-08-02T08:41:24.155Z,15.83
2022-08-02T08:42:27.479Z,14.97
2022-08-02T08:43:31.691Z,14.70
2022-08-02T08:44:35.473Z,14.47
2022-08-02T08:45:41.470Z,14.40
2022-08-02T08:46:45.203Z,17.53
2022-08-02T08:47:54.041Z,14.60
2022-08-02T08:49:02.842Z,12.40
2022-08-02T08:50:11.596Z,11.17
2022-08-02T08:51:22.953Z,11.63
2022-08-02T08:52:27.974Z,9.70
2022-08-02T08:53:36.484Z,9.53
2022-08-02T08:54:43.716Z,10.97
2022-08-02T08:55:53.360Z,9.33
2022-08-02T08:56:58.369Z,9.43
2022-08-02T08:58:03.071Z,8.83
2022-08-02T08:59:07.446Z,9.50
2022-08-02T09:00:13.205Z,9.00
2022-08-02T09:01:17.886Z,8.73
2022-08-02T09:02:26.035Z,8.67
2022-08-02T09:03:33.883Z,8.63
2022-08-02T09:04:38.901Z,9.17
2022-08-02T09:05:43.561Z,9.53
2022-08-02T09:06:46.651Z,7.77
2022-08-02T09:07:52.186Z,7.70
2022-08-02T09:08:55.449Z,7.43
2022-08-02T09:10:01.333Z,7.23
2022-08-02T09:11:13.503Z,9.90
2022-08-02T09:12:18.347Z,6.70
2022-08-02T09:13:38.502Z,9.20
2022-08-02T09:14:49.942Z,6.90
2022-08-02T09:15:56.357Z,6.90
2022-08-02T09:17:09.617Z,6.10
2022-08-02T09:18:13.458Z,8.23
2022-08-02T09:19:22.547Z,7.37
2022-08-02T09:20:30.437Z,7.43
2022-08-02T09:21:39.246Z,9.37
2022-08-02T09:22:42.653Z,7.87
2022-08-02T09:23:48.676Z,7.70
2022-08-02T09:24:53.584Z,8.90
2022-08-02T09:26:04.518Z,7.47
2022-08-02T09:27:16.332Z,7.40
2022-08-02T09:28:19.431Z,8.07
2022-08-02T09:29:25.953Z,9.73
2022-08-02T09:30:29.828Z,7.47
2022-08-02T09:31:35.872Z,8.63
2022-08-02T09:32:46.843Z,9.13
2022-08-02T09:33:54.763Z,8.67
2022-08-02T09:34:59.282Z,7.87
2022-08-02T09:36:07.184Z,8.63
2022-08-02T09:37:24.385Z,8.40
2022-08-02T09:38:27.745Z,8.67
2022-08-02T09:39:47.607Z,7.70
2022-08-02T09:40:51.061Z,7.23
2022-08-02T09:42:11.043Z,6.80
2022-08-02T09:43:14.719Z,7.13
2022-08-02T09:44:18.821Z,7.23
2022-08-02T09:45:21.899Z,6.73
2022-08-02T09:46:28.467Z,10.33
2022-08-02T09:47:37.539Z,7.00
2022-08-02T09:48:55.042Z,7.93
2022-08-02T09:50:00.089Z,6.87
2022-08-02T09:51:03.455Z,6.50
2022-08-02T09:52:08.291Z,9.43
2022-08-02T09:53:13.333Z,7.70
2022-08-02T09:54:19.753Z,9.17
2022-08-02T09:55:23.172Z,9.07
2022-08-02T09:56:29.455Z,9.83
2022-08-02T09:57:40.237Z,10.43
2022-08-02T09:58:44.514Z,13.30
2022-08-02T09:59:54.823Z,8.90
2022-08-02T10:00:59.383Z,9.03
2022-08-02T10:02:17.609Z,10.43
2022-08-02T10:03:23.123Z,10.37
2022-08-02T10:04:53.163Z,10.47
2022-08-02T10:06:03.030Z,9.10
2022-08-02T10:07:06.863Z,9.57
2022-08-02T10:08:11.241Z,8.40
2022-08-02T10:09:17.002Z,8.53
2022-08-02T10:10:20.236Z,13.10
2022-08-02T10:11:30.700Z,7.83
2022-08-02T10:12:37.303Z,8.33
2022-08-02T10:13:42.117Z,8.67
2022-08-02T10:14:47.064Z,8.60
2022-08-02T10:15:50.824Z,8.77
2022-08-02T10:16:55.410Z,8.63
2022-08-02T10:17:58.951Z,8.00
2022-08-02T10:19:04.852Z,10.57
2022-08-02T10:20:10.243Z,9.63
2022-08-02T10:21:15.799Z,9.70
2022-08-02T10:22:20.653Z,9.73
2022-08-02T10:23:26.860Z,9.57
2022-08-02T10:24:33.793Z,9.73
2022-08-02T10:25:37.630Z,9.37
2022-08-02T10:26:45.365Z,11.13
2022-08-02T10:28:04.654Z,9.47
2022-08-02T10:29:12.716Z,8.53
2022-08-02T10:30:16.134Z,8.50
2022-08-02T10:31:24.024Z,8.27
2022-08-02T10:32:32.610Z,8.30
2022-08-02T10:33:36.798Z,9.80
2022-08-02T10:34:51.124Z,7.93
2022-08-02T10:36:04.486Z,9.80
2022-08-02T10:37:14.807Z,9.77
2022-08-02T10:38:20.172Z,9.50
2022-08-02T10:39:24.366Z,11.83
2022-08-02T10:40:44.523Z,13.57
2022-08-02T10:41:50.621Z,12.10
2022-08-02T10:42:56.225Z,11.10
2022-08-02T10:44:00.771Z,11.93
2022-08-02T10:45:15.283Z,11.60
2022-08-02T10:46:23.542Z,12.93
2022-08-02T10:47:28.081Z,13.80
2022-08-02T10:48:31.202Z,12.13
2022-08-02T10:49:50.047Z,10.73
2022-08-02T10:50:54.292Z,12.40
2022-08-02T10:52:09.682Z,9.70
2022-08-02T10:53:27.854Z,10.07
2022-08-02T10:54:35.433Z,9.43
2022-08-02T10:55:46.919Z,9.47
2022-08-02T10:56:52.850Z,8.60
2022-08-02T10:58:18.721Z,8.57
2022-08-02T10:59:26.750Z,8.67
2022-08-02T11:00:32.466Z,9.20
2022-08-02T11:01:44.641Z,8.70
2022-08-02T11:02:53.585Z,9.30
2022-08-02T11:03:59.882Z,9.47
2022-08-02T11:05:15.717Z,12.03
2022-08-02T11:06:25.674Z,7.70
2022-08-02T11:07:34.057Z,7.87
2022-08-02T11:08:40.794Z,8.83
2022-08-02T11:09:45.913Z,8.80
2022-08-02T11:10:50.171Z,9.77
2022-08-02T11:12:01.646Z,9.33
2022-08-02T11:13:11.997Z,7.83
2022-08-02T11:14:15.611Z,9.07
2022-08-02T11:15:20.724Z,8.33
2022-08-02T11:17:05.761Z,9.63
2022-08-02T11:18:10.164Z,9.27
2022-08-02T11:19:13.344Z,9.27
2022-08-02T11:20:19.272Z,8.03
2022-08-02T11:21:23.655Z,8.97
2022-08-02T11:22:28.431Z,9.50
2022-08-02T11:23:44.951Z,8.90
2022-08-02T11:24:50.285Z,9.13
2022-08-02T11:26:11.367Z,10.33
2022-08-02T11:27:21.896Z,10.23
2022-08-02T11:28:26.961Z,8.47
2022-08-02T11:29:38.203Z,7.73
2022-08-02T11:30:43.233Z,10.57
2022-08-02T11:31:48.672Z,8.83
2022-08-02T11:32:53.260Z,8.77
2022-08-02T11:33:56.422Z,8.10
2022-08-02T11:35:00.801Z,8.23
2022-08-02T11:36:05.937Z,8.13
2022-08-02T11:37:10.492Z,8.37
2022-08-02T11:38:16.137Z,7.57
2022-08-02T11:39:21.688Z,8.93
2022-08-02T11:40:24.919Z,7.80
2022-08-02T11:41:46.600Z,9.70
2022-08-02T11:42:53.983Z,11.37
2022-08-02T11:43:58.382Z,8.07
2022-08-02T11:45:02.796Z,9.70
2022-08-02T11:46:06.113Z,9.27
2022-08-02T11:47:12.843Z,7.45
2022-08-02T11:48:16.052Z,13.23
2022-08-02T11:49:20.515Z,7.88
2022-08-02T11:50:30.302Z,7.68
2022-08-02T11:51:35.146Z,8.75
2022-08-02T11:52:38.588Z,8.38
2022-08-02T11:53:44.333Z,8.02
2022-08-02T11:54:51.094Z,7.22
2022-08-02T11:55:57.583Z,8.40
2022-08-02T11:57:20.158Z,7.30
2022-08-02T11:58:24.192Z,6.47
2022-08-02T11:59:28.343Z,6.47
2022-08-02T12:00:31.493Z,7.13
2022-08-02T12:01:46.161Z,8.45
2022-08-02T12:02:52.159Z,6.65
2022-08-02T12:04:01.109Z,7.38
2022-08-02T12:05:08.858Z,6.20
2022-08-02T12:06:16.652Z,6.70
2022-08-02T12:07:34.665Z,6.47
2022-08-02T12:08:39.195Z,7.03
2022-08-02T12:09:43.363Z,8.52
2022-08-02T12:10:48.173Z,6.32
2022-08-02T12:11:52.693Z,6.35
2022-08-02T12:12:58.024Z,6.88
2022-08-02T12:14:02.434Z,6.78
2022-08-02T12:15:10.568Z,6.72
2022-08-02T12:16:34.044Z,6.90
2022-08-02T12:17:55.721Z,9.55
2022-08-02T12:19:18.966Z,7.28
2022-08-02T12:20:23.205Z,6.30
2022-08-02T12:21:27.310Z,9.88
2022-08-02T12:22:31.791Z,7.20
2022-08-02T12:23:59.467Z,6.85
2022-08-02T12:25:33.575Z,5.80
2022-08-02T12:26:46.062Z,6.22
2022-08-02T12:27:53.379Z,5.93
2022-08-02T12:29:01.702Z,5.88
2022-08-02T12:30:08.927Z,5.70
2022-08-02T12:31:14.383Z,5.82
2022-08-02T12:32:26.073Z,7.25
2022-08-02T12:33:32.382Z,7.55
2022-08-02T12:34:38.862Z,6.32
2022-08-02T12:35:43.152Z,6.05
2022-08-02T12:36:59.276Z,6.05
2022-08-02T12:38:11.160Z,6.10
2022-08-02T12:39:14.908Z,5.70
2022-08-02T12:40:25.506Z,6.53
2022-08-02T12:41:32.483Z,6.05
2022-08-02T12:42:48.043Z,7.72
2022-08-02T12:43:53.072Z,9.13
2022-08-02T12:44:58.955Z,8.07
2022-08-02T12:46:03.091Z,6.15
2022-08-02T12:47:09.666Z,8.27
2022-08-02T12:48:14.274Z,6.85
2022-08-02T12:49:19.017Z,6.95
2022-08-02T12:50:27.563Z,5.90
2022-08-02T12:51:56.591Z,6.30
2022-08-02T12:53:09.465Z,6.25
2022-08-02T12:54:17.993Z,8.13
2022-08-02T12:55:24.391Z,5.50
2022-08-02T12:56:29.070Z,6.15
2022-08-02T12:57:33.481Z,5.90
2022-08-02T12:58:49.130Z,6.00
2022-08-02T12:59:54.955Z,6.97
2022-08-02T13:01:00.966Z,6.03
2022-08-02T13:02:06.564Z,6.05
2022-08-02T13:04:11.520Z,6.72
2022-08-02T13:04:36.405Z,7.10
2022-08-02T13:05:56.056Z,6.03
2022-08-02T13:07:02.948Z,5.30
2022-08-02T13:08:06.876Z,5.90
2022-08-02T13:09:16.030Z,5.40
2022-08-02T13:10:21.092Z,5.10
2022-08-02T13:11:24.392Z,5.15
2022-08-02T13:12:28.531Z,5.32
2022-08-02T13:13:32.620Z,8.13
2022-08-02T13:14:41.918Z,5.38
2022-08-02T13:15:50.776Z,4.93
2022-08-02T13:16:55.463Z,6.40
2022-08-02T13:17:59.417Z,5.43
2022-08-02T13:19:03.520Z,5.32
2022-08-02T13:20:11.315Z,6.25
2022-08-02T13:21:39.973Z,5.35
2022-08-02T13:22:42.757Z,6.25
2022-08-02T13:23:56.540Z,5.95
2022-08-02T13:25:04.891Z,6.15
2022-08-02T13:26:09.611Z,5.70
2022-08-02T13:27:13.002Z,5.72
2022-08-02T13:28:17.380Z,6.32
2022-08-02T13:29:20.593Z,6.00
2022-08-02T13:30:24.903Z,6.90
2022-08-02T13:31:36.687Z,6.57
2022-08-02T13:32:41.123Z,6.90
2022-08-02T13:33:44.506Z,6.45
2022-08-02T13:34:48.991Z,7.80
2022-08-02T13:35:52.365Z,6.25
2022-08-02T13:36:58.343Z,6.35
2022-08-02T13:38:04.599Z,6.70
2022-08-02T13:39:10.771Z,6.20
2022-08-02T13:40:23.000Z,5.80
2022-08-02T13:41:26.382Z,6.57
2022-08-02T13:42:31.933Z,8.20
2022-08-02T13:43:53.553Z,6.20
2022-08-02T13:45:00.223Z,5.28
2022-08-02T13:46:16.395Z,5.40
2022-08-02T13:47:36.357Z,4.97
2022-08-02T13:48:58.015Z,5.53
2022-08-02T13:50:01.545Z,5.70
2022-08-02T13:51:14.860Z,4.90
2022-08-02T13:52:20.620Z,5.13
2022-08-02T13:53:25.056Z,5.63
2022-08-02T13:54:29.145Z,7.87
2022-08-02T13:55:32.341Z,5.33
2022-08-02T13:56:37.642Z,7.57
2022-08-02T13:57:41.415Z,6.90
2022-08-02T13:58:46.062Z,5.23
2022-08-02T13:59:56.539Z,4.50
2022-08-02T14:01:03.291Z,4.87
2022-08-02T14:02:07.226Z,9.77
2022-08-02T14:03:12.221Z,5.97
2022-08-02T14:04:16.651Z,6.07
2022-08-02T14:05:19.684Z,4.83
2022-08-02T14:06:43.561Z,5.23
2022-08-02T14:07:49.247Z,7.13
2022-08-02T14:08:52.570Z,5.20
2022-08-02T14:09:56.717Z,4.93
2022-08-02T14:11:00.121Z,6.83
2022-08-02T14:12:04.710Z,5.20
2022-08-02T14:13:07.861Z,5.00
2022-08-02T14:14:15.888Z,5.47
2022-08-02T14:15:20.506Z,8.13
2022-08-02T14:16:24.864Z,4.80
2022-08-02T14:17:37.330Z,5.27
2022-08-02T14:18:40.508Z,5.53
2022-08-02T14:19:44.811Z,5.30
2022-08-02T14:20:47.871Z,5.50
2022-08-02T14:21:53.070Z,5.23
2022-08-02T14:23:16.526Z,4.40
2022-08-02T14:24:21.471Z,5.27
2022-08-02T14:25:26.276Z,5.90
2022-08-02T14:26:29.331Z,5.70
2022-08-02T14:27:39.274Z,5.40
2022-08-02T14:28:43.831Z,5.20
2022-08-02T14:29:48.453Z,4.63
2022-08-02T14:30:52.835Z,5.17
2022-08-02T14:31:55.921Z,6.53
2022-08-02T14:33:00.234Z,4.93
2022-08-02T14:34:04.491Z,4.83
2022-08-02T14:35:09.121Z,5.30
2022-08-02T14:36:12.600Z,8.60
2022-08-02T14:37:16.867Z,5.40
2022-08-02T14:38:23.641Z,4.67
2022-08-02T14:39:27.006Z,4.90
2022-08-02T14:40:47.262Z,5.43
2022-08-02T14:42:00.017Z,5.57
2022-08-02T14:43:05.090Z,5.00
2022-08-02T14:44:08.673Z,4.87
2022-08-02T14:45:13.221Z,5.33
2022-08-02T14:46:17.348Z,4.90
2022-08-02T14:47:22.448Z,4.20
2022-08-02T14:48:25.834Z,5.43
2022-08-02T14:49:30.590Z,8.93
2022-08-02T14:50:34.053Z,4.83
2022-08-02T14:51:39.333Z,4.83